Time;durP1;ratioP1;P1;durP2;ratioP2;P2;SDS_P1;SDS_P2;PMS_P1;PMS_P2;Temp;Humidity;BMP_temperature;BMP_pressure;BME280_temperature;BME280_humidity;BME280_pressure;Samples;Min_cycle;Max_cycle;Signal;HPM_P1;HPM_P2
2022/06/07 00:02:09;;;;;;;;;;;21.60;48.80;;;;;;5082023;28;20439;-56
2022/06/07 00:04:36;;;;;;;;;;;21.60;48.80;;;;;;5082219;28;19920;-51
2022/06/07 00:07:03;;;;;;;;;;;21.60;48.80;;;;;;5071361;28;20385;-54
2022/06/07 00:09:30;;;;;;;;;;;21.60;48.70;;;;;;5072267;28;20011;-54
2022/06/07 00:11:57;;;;;;;;;;;21.60;48.70;;;;;;5089354;28;19928;-57
2022/06/07 00:14:25;;;;;;;;;;;21.60;48.70;;;;;;5088296;28;19927;-54
2022/06/07 00:16:54;;;;;;;;;;;21.60;48.70;;;;;;5081577;28;20028;-55
2022/06/07 00:19:21;;;;;;;;;;;21.60;48.70;;;;;;5090261;28;19965;-55
2022/06/07 00:21:47;;;;;;;;;;;21.60;48.70;;;;;;5088942;28;20419;-55
2022/06/07 00:24:14;;;;;;;;;;;21.60;48.70;;;;;;5090117;28;19981;-53
2022/06/07 00:26:42;;;;;;;;;;;21.50;48.60;;;;;;5089863;28;19927;-55
2022/06/07 00:29:08;;;;;;;;;;;21.60;48.70;;;;;;5089177;28;19928;-51
2022/06/07 00:31:37;;;;;;;;;;;21.60;48.70;;;;;;5090216;28;19927;-54
2022/06/07 00:34:04;;;;;;;;;;;21.50;48.60;;;;;;5088023;28;19931;-57
2022/06/07 00:36:31;;;;;;;;;;;21.60;48.70;;;;;;5089574;28;20274;-55
2022/06/07 00:38:58;;;;;;;;;;;21.50;48.60;;;;;;5089228;28;19970;-55
2022/06/07 00:41:25;;;;;;;;;;;21.50;48.50;;;;;;5087879;28;19920;-55
2022/06/07 00:44:09;;;;;;;;;;;21.50;48.60;;;;;;5072891;28;19921;-57
2022/06/07 00:46:38;;;;;;;;;;;21.60;48.70;;;;;;5063651;28;19960;-55
2022/06/07 00:49:05;;;;;;;;;;;21.50;48.60;;;;;;5073221;28;19938;-57
2022/06/07 00:51:31;;;;;;;;;;;21.60;48.60;;;;;;5090375;28;20304;-53
2022/06/07 00:53:58;;;;;;;;;;;21.50;48.50;;;;;;5087205;28;19952;-55
2022/06/07 00:56:25;;;;;;;;;;;21.50;48.50;;;;;;5079210;28;19927;-56
2022/06/07 00:58:52;;;;;;;;;;;21.50;48.50;;;;;;5088779;28;19924;-56
2022/06/07 01:01:18;;;;;;;;;;;21.50;48.50;;;;;;5071158;28;19920;-53
2022/06/07 01:03:46;;;;;;;;;;;21.50;48.50;;;;;;5090113;28;20097;-53
2022/06/07 01:11:41;;;;;;;;;;;21.50;48.50;;;;;;5080554;28;20050;-52
2022/06/07 01:14:08;;;;;;;;;;;21.50;48.50;;;;;;5088261;28;19974;-55
2022/06/07 01:16:35;;;;;;;;;;;21.50;48.40;;;;;;5088998;28;19977;-57
2022/06/07 01:19:03;;;;;;;;;;;21.50;48.50;;;;;;5089116;28;19927;-53
2022/06/07 01:21:31;;;;;;;;;;;21.50;48.50;;;;;;5089601;28;20413;-56
2022/06/07 01:23:58;;;;;;;;;;;21.50;48.40;;;;;;5091023;28;19924;-56
2022/06/07 01:26:25;;;;;;;;;;;21.50;48.40;;;;;;5070070;28;19920;-56
2022/06/07 01:28:52;;;;;;;;;;;21.50;48.50;;;;;;5070232;28;19921;-57
2022/06/07 01:31:19;;;;;;;;;;;21.50;48.50;;;;;;5083984;28;19921;-57
2022/06/07 01:33:46;;;;;;;;;;;21.50;48.50;;;;;;5080337;28;19920;-55
2022/06/07 01:36:13;;;;;;;;;;;21.50;48.50;;;;;;5074791;28;19965;-57
2022/06/07 01:38:42;;;;;;;;;;;21.50;48.40;;;;;;5085683;28;20025;-55
2022/06/07 01:43:54;;;;;;;;;;;21.50;48.40;;;;;;5089249;28;20361;-55
2022/06/07 01:46:20;;;;;;;;;;;21.50;48.50;;;;;;5085666;28;19928;-52
2022/06/07 01:48:48;;;;;;;;;;;21.50;48.40;;;;;;5081777;28;20349;-56
2022/06/07 01:51:15;;;;;;;;;;;21.50;48.50;;;;;;5073006;28;19920;-56
2022/06/07 01:53:43;;;;;;;;;;;21.50;48.50;;;;;;5073618;28;19960;-56
2022/06/07 01:56:11;;;;;;;;;;;21.50;48.50;;;;;;5073864;28;19927;-55
2022/06/07 01:58:38;;;;;;;;;;;21.50;48.50;;;;;;5086656;28;19920;-55
2022/06/07 02:01:04;;;;;;;;;;;21.50;48.40;;;;;;5083695;28;19938;-55
2022/06/07 02:03:31;;;;;;;;;;;21.50;48.50;;;;;;5088422;28;19997;-53
2022/06/07 02:05:58;;;;;;;;;;;21.50;48.50;;;;;;5086143;28;20388;-54
2022/06/07 02:08:25;;;;;;;;;;;21.50;48.40;;;;;;5088603;28;19927;-55
2022/06/07 02:10:53;;;;;;;;;;;21.50;48.40;;;;;;5080451;28;19981;-57
2022/06/07 02:13:20;;;;;;;;;;;21.50;48.40;;;;;;5089491;28;19993;-54
2022/06/07 02:15:47;;;;;;;;;;;21.50;48.50;;;;;;5089233;28;19920;-55
2022/06/07 02:18:14;;;;;;;;;;;21.50;48.50;;;;;;5086902;28;19924;-53
2022/06/07 02:20:40;;;;;;;;;;;21.50;48.50;;;;;;5087240;28;20027;-53
2022/06/07 02:23:08;;;;;;;;;;;21.50;48.50;;;;;;5088816;28;19931;-56
2022/06/07 02:25:36;;;;;;;;;;;21.50;48.50;;;;;;5085628;28;19947;-56
2022/06/07 02:28:04;;;;;;;;;;;21.50;48.50;;;;;;5078467;28;19920;-57
2022/06/07 02:30:31;;;;;;;;;;;21.50;48.40;;;;;;5087093;28;20010;-55
2022/06/07 02:32:58;;;;;;;;;;;21.50;48.40;;;;;;5092735;28;20347;-53
2022/06/07 02:35:24;;;;;;;;;;;21.50;48.50;;;;;;5091616;28;20053;-56
2022/06/07 02:37:51;;;;;;;;;;;21.50;48.50;;;;;;5078959;28;20019;-57
2022/06/07 02:40:18;;;;;;;;;;;21.50;48.50;;;;;;5080977;28;19924;-53
2022/06/07 02:42:45;;;;;;;;;;;21.50;48.40;;;;;;5087453;28;19981;-54
2022/06/07 02:45:13;;;;;;;;;;;21.50;48.50;;;;;;5085602;28;20320;-53
2022/06/07 02:47:40;;;;;;;;;;;21.50;48.50;;;;;;5072952;28;19921;-56
2022/06/07 02:50:07;;;;;;;;;;;21.50;48.70;;;;;;5086709;28;20003;-54
2022/06/07 02:52:34;;;;;;;;;;;21.50;48.50;;;;;;5078258;28;20161;-55
2022/06/07 02:55:01;;;;;;;;;;;21.50;48.40;;;;;;5088652;28;19928;-54
2022/06/07 02:57:28;;;;;;;;;;;21.50;48.40;;;;;;5089222;28;20011;-54
2022/06/07 02:59:55;;;;;;;;;;;21.50;48.40;;;;;;5092336;28;19920;-56
2022/06/07 03:02:23;;;;;;;;;;;21.50;48.40;;;;;;5090345;28;19920;-56
2022/06/07 03:04:50;;;;;;;;;;;21.50;48.40;;;;;;5090460;28;20140;-52
2022/06/07 03:07:17;;;;;;;;;;;21.50;48.40;;;;;;5092589;28;20289;-55
2022/06/07 03:09:44;;;;;;;;;;;21.50;48.40;;;;;;5090681;28;20361;-54
2022/06/07 03:12:11;;;;;;;;;;;21.50;48.40;;;;;;5080008;28;19950;-55
2022/06/07 03:14:37;;;;;;;;;;;21.50;49.00;;;;;;5090936;28;19923;-55
2022/06/07 03:17:04;;;;;;;;;;;21.50;48.40;;;;;;5086387;28;19931;-53
2022/06/07 03:19:32;;;;;;;;;;;21.50;48.40;;;;;;5090309;28;19926;-52
2022/06/07 03:21:59;;;;;;;;;;;21.50;48.40;;;;;;5092519;28;19950;-56
2022/06/07 03:24:26;;;;;;;;;;;21.50;48.40;;;;;;5081551;28;19921;-56
2022/06/07 03:26:53;;;;;;;;;;;21.50;48.40;;;;;;5074645;28;19920;-54
2022/06/07 03:29:20;;;;;;;;;;;21.40;48.40;;;;;;5090011;28;20362;-53
2022/06/07 03:31:48;;;;;;;;;;;21.50;48.40;;;;;;5087379;28;20019;-54
2022/06/07 03:34:14;;;;;;;;;;;21.50;48.40;;;;;;5089368;28;19927;-54
2022/06/07 03:36:43;;;;;;;;;;;21.40;48.40;;;;;;5088806;28;20319;-55
2022/06/07 03:39:10;;;;;;;;;;;21.50;48.40;;;;;;5089515;28;20377;-57
2022/06/07 03:41:36;;;;;;;;;;;21.50;48.40;;;;;;5087424;28;19927;-52
2022/06/07 03:44:03;;;;;;;;;;;21.50;48.40;;;;;;5090629;28;19962;-54
2022/06/07 03:46:32;;;;;;;;;;;21.40;48.30;;;;;;5091241;28;19927;-52
2022/06/07 03:48:59;;;;;;;;;;;21.50;48.40;;;;;;5084396;28;20345;-54
2022/06/07 03:51:27;;;;;;;;;;;21.40;48.30;;;;;;5088025;28;20300;-54
2022/06/07 03:53:55;;;;;;;;;;;21.40;48.30;;;;;;5081116;28;19920;-55
2022/06/07 03:56:23;;;;;;;;;;;21.50;48.40;;;;;;5088929;28;19924;-52
2022/06/07 03:58:50;;;;;;;;;;;21.50;48.40;;;;;;5090636;28;19926;-56
2022/06/07 04:01:17;;;;;;;;;;;21.40;48.30;;;;;;5085329;28;19920;-55
2022/06/07 04:03:44;;;;;;;;;;;21.40;48.30;;;;;;5088659;28;19944;-54
2022/06/07 04:06:16;;;;;;;;;;;21.40;48.30;;;;;;5086170;28;19927;-58
2022/06/07 04:08:43;;;;;;;;;;;21.40;48.30;;;;;;5088376;28;20027;-56
2022/06/07 04:11:11;;;;;;;;;;;21.40;48.30;;;;;;5081634;28;19921;-51
2022/06/07 04:13:38;;;;;;;;;;;21.40;48.30;;;;;;5082928;28;19928;-53
2022/06/07 04:16:05;;;;;;;;;;;21.40;48.30;;;;;;5091371;28;20431;-54
2022/06/07 04:18:32;;;;;;;;;;;21.40;48.30;;;;;;5090246;28;19970;-54
2022/06/07 04:20:59;;;;;;;;;;;21.50;48.30;;;;;;5092469;28;19966;-52
2022/06/07 04:23:25;;;;;;;;;;;21.40;48.30;;;;;;5090769;28;19924;-56
2022/06/07 04:25:52;;;;;;;;;;;21.50;48.30;;;;;;5086856;28;19960;-54
2022/06/07 04:28:21;;;;;;;;;;;21.40;48.30;;;;;;5088785;28;19927;-55
2022/06/07 04:30:48;;;;;;;;;;;21.40;48.20;;;;;;5076846;28;19920;-55
2022/06/07 04:33:15;;;;;;;;;;;21.40;48.20;;;;;;5071562;28;19924;-53
2022/06/07 04:35:42;;;;;;;;;;;21.40;48.20;;;;;;5076847;28;19924;-53
2022/06/07 04:38:09;;;;;;;;;;;21.40;48.20;;;;;;5076027;28;19932;-53
2022/06/07 04:40:36;;;;;;;;;;;21.40;48.20;;;;;;5087881;28;19923;-54
2022/06/07 04:43:02;;;;;;;;;;;21.40;48.20;;;;;;5078969;28;19932;-56
2022/06/07 04:45:31;;;;;;;;;;;21.40;48.20;;;;;;5080690;28;19974;-54
2022/06/07 04:47:58;;;;;;;;;;;21.40;48.20;;;;;;5077339;28;19920;-52
2022/06/07 04:50:25;;;;;;;;;;;21.40;48.20;;;;;;5088108;28;19942;-56
2022/06/07 04:52:51;;;;;;;;;;;21.40;48.20;;;;;;5090174;28;20109;-52
2022/06/07 04:55:18;;;;;;;;;;;21.40;48.20;;;;;;5086639;28;19926;-55
2022/06/07 04:57:45;;;;;;;;;;;21.40;48.20;;;;;;5083129;28;19927;-55
2022/06/07 05:00:15;;;;;;;;;;;21.40;48.20;;;;;;5070402;28;19947;-57
2022/06/07 05:02:43;;;;;;;;;;;21.40;48.20;;;;;;5085514;28;20425;-53
2022/06/07 05:05:10;;;;;;;;;;;21.40;48.20;;;;;;5088709;28;19924;-55
2022/06/07 05:07:38;;;;;;;;;;;21.40;48.20;;;;;;5088200;28;19924;-56
2022/06/07 05:10:06;;;;;;;;;;;21.40;48.20;;;;;;5087298;28;20362;-53
2022/06/07 05:12:33;;;;;;;;;;;21.40;48.20;;;;;;5081835;28;20029;-55
2022/06/07 05:14:59;;;;;;;;;;;21.40;48.20;;;;;;5085291;28;19920;-51
2022/06/07 05:17:26;;;;;;;;;;;21.40;48.20;;;;;;5080560;28;19968;-52
2022/06/07 05:19:54;;;;;;;;;;;21.40;48.20;;;;;;5083173;28;19920;-54
2022/06/07 05:22:21;;;;;;;;;;;21.40;48.20;;;;;;5076254;28;19932;-54
2022/06/07 05:24:48;;;;;;;;;;;21.40;48.20;;;;;;5086354;28;20276;-50
2022/06/07 05:27:16;;;;;;;;;;;21.40;48.20;;;;;;5083841;28;19928;-52
2022/06/07 05:29:44;;;;;;;;;;;21.40;48.20;;;;;;5073372;28;19974;-55
2022/06/07 05:32:11;;;;;;;;;;;21.40;48.20;;;;;;5075549;28;19920;-56
2022/06/07 05:34:38;;;;;;;;;;;21.40;48.20;;;;;;5085226;28;19924;-54
2022/06/07 05:37:06;;;;;;;;;;;21.40;48.20;;;;;;5088853;28;19922;-53
2022/06/07 05:39:33;;;;;;;;;;;21.40;48.20;;;;;;5083379;28;20022;-51
2022/06/07 05:42:00;;;;;;;;;;;21.40;48.20;;;;;;5078885;28;19927;-57
2022/06/07 05:44:27;;;;;;;;;;;21.40;48.20;;;;;;5080371;28;19943;-55
2022/06/07 05:46:54;;;;;;;;;;;21.40;48.20;;;;;;5078552;28;19927;-53
2022/06/07 05:49:21;;;;;;;;;;;21.40;48.20;;;;;;5074419;28;19931;-53
2022/06/07 05:51:47;;;;;;;;;;;21.40;48.20;;;;;;5073026;28;20388;-53
2022/06/07 05:54:16;;;;;;;;;;;21.40;48.20;;;;;;5081188;28;20333;-56
2022/06/07 05:56:42;;;;;;;;;;;21.40;48.20;;;;;;5080102;28;20439;-55
2022/06/07 05:59:10;;;;;;;;;;;21.40;48.30;;;;;;5076817;28;20052;-53
2022/06/07 06:01:37;;;;;;;;;;;21.40;48.30;;;;;;5080085;28;19921;-53
2022/06/07 06:04:06;;;;;;;;;;;21.40;48.30;;;;;;5079783;28;19936;-51
2022/06/07 06:06:33;;;;;;;;;;;21.40;48.30;;;;;;5075605;28;19931;-55
2022/06/07 06:11:45;;;;;;;;;;;21.40;48.30;;;;;;5080798;28;19920;-53
2022/06/07 06:14:12;;;;;;;;;;;21.50;48.40;;;;;;5081155;28;19928;-53
2022/06/07 06:16:39;;;;;;;;;;;21.40;48.30;;;;;;5073787;28;19920;-58
2022/06/07 06:19:06;;;;;;;;;;;21.40;48.30;;;;;;5078818;28;20366;-56
2022/06/07 06:21:33;;;;;;;;;;;21.40;48.30;;;;;;5079953;28;20366;-54
2022/06/07 06:24:00;;;;;;;;;;;21.40;48.30;;;;;;5083454;28;19920;-54
2022/06/07 06:26:28;;;;;;;;;;;21.40;48.30;;;;;;5073231;28;19924;-56
2022/06/07 06:28:56;;;;;;;;;;;21.40;48.30;;;;;;5091639;28;20280;-58
2022/06/07 06:31:23;;;;;;;;;;;21.50;48.40;;;;;;5079832;28;19921;-55
2022/06/07 06:33:50;;;;;;;;;;;21.50;48.40;;;;;;5082705;28;20015;-55
2022/06/07 06:36:17;;;;;;;;;;;21.40;48.30;;;;;;5080080;28;19920;-55
2022/06/07 06:38:45;;;;;;;;;;;21.50;48.40;;;;;;5086300;28;20022;-57
2022/06/07 06:41:12;;;;;;;;;;;21.50;48.40;;;;;;5098194;28;19921;-52
2022/06/07 06:43:39;;;;;;;;;;;21.50;48.40;;;;;;5082157;28;19920;-58
2022/06/07 06:46:07;;;;;;;;;;;21.40;48.40;;;;;;5069701;28;20305;-56
2022/06/07 06:48:34;;;;;;;;;;;21.50;48.40;;;;;;5084171;28;19927;-59
2022/06/07 06:51:01;;;;;;;;;;;21.50;48.40;;;;;;5078710;28;19921;-54
2022/06/07 06:53:28;;;;;;;;;;;21.50;48.40;;;;;;5064758;28;19973;-53
2022/06/07 06:55:55;;;;;;;;;;;21.50;48.40;;;;;;5084794;28;19924;-56
2022/06/07 06:58:24;;;;;;;;;;;21.50;48.40;;;;;;5084197;28;19921;-56
2022/06/07 07:00:58;;;;;;;;;;;21.50;48.50;;;;;;5075715;28;19928;-51
2022/06/07 07:03:26;;;;;;;;;;;21.50;48.40;;;;;;5077076;28;19924;-56
2022/06/07 07:05:53;;;;;;;;;;;21.50;48.50;;;;;;5071621;28;19924;-56
2022/06/07 07:08:20;;;;;;;;;;;21.50;48.50;;;;;;5081103;28;19920;-53
2022/06/07 07:10:46;;;;;;;;;;;21.50;48.50;;;;;;5091035;28;19920;-55
2022/06/07 07:13:13;;;;;;;;;;;21.50;48.50;;;;;;5085879;28;20244;-53
2022/06/07 07:15:40;;;;;;;;;;;21.50;48.50;;;;;;5074165;28;20272;-55
2022/06/07 07:18:07;;;;;;;;;;;21.50;48.60;;;;;;5078110;28;19920;-56
2022/06/07 07:20:35;;;;;;;;;;;21.40;48.50;;;;;;5077180;28;19931;-53
2022/06/07 07:23:02;;;;;;;;;;;21.50;48.70;;;;;;5076712;28;19920;-56
2022/06/07 07:25:29;;;;;;;;;;;21.50;48.70;;;;;;5084672;28;20242;-55
2022/06/07 07:27:56;;;;;;;;;;;21.50;48.70;;;;;;5096030;28;19920;-53
2022/06/07 07:30:22;;;;;;;;;;;21.50;48.80;;;;;;5081739;28;19920;-57
2022/06/07 07:32:49;;;;;;;;;;;21.50;48.80;;;;;;5081925;28;20357;-54
2022/06/07 07:35:17;;;;;;;;;;;21.50;48.90;;;;;;5084575;28;19920;-56
2022/06/07 07:37:46;;;;;;;;;;;21.50;48.90;;;;;;5096145;28;19930;-56
2022/06/07 07:40:13;;;;;;;;;;;21.50;48.90;;;;;;5096111;28;19938;-55
2022/06/07 07:42:41;;;;;;;;;;;21.50;49.00;;;;;;5097192;28;19978;-50
2022/06/07 07:45:08;;;;;;;;;;;21.50;49.00;;;;;;5096654;28;19974;-53
2022/06/07 07:47:35;;;;;;;;;;;21.50;49.00;;;;;;5096389;28;19970;-53
2022/06/07 07:50:02;;;;;;;;;;;21.50;49.10;;;;;;5091457;28;19974;-54
2022/06/07 07:52:29;;;;;;;;;;;21.50;49.10;;;;;;5092627;28;20369;-57
2022/06/07 07:54:57;;;;;;;;;;;21.50;49.10;;;;;;5074720;28;19920;-51
2022/06/07 07:57:24;;;;;;;;;;;21.50;49.10;;;;;;5088274;28;19927;-52
2022/06/07 07:59:51;;;;;;;;;;;21.50;49.10;;;;;;5095725;28;20026;-53
2022/06/07 08:02:18;;;;;;;;;;;21.50;49.00;;;;;;5096192;28;20350;-56
2022/06/07 08:04:44;;;;;;;;;;;21.50;49.00;;;;;;5096393;28;19924;-52
2022/06/07 08:07:11;;;;;;;;;;;21.50;49.00;;;;;;5075638;28;19920;-53
2022/06/07 08:09:38;;;;;;;;;;;21.50;49.00;;;;;;5075597;28;20295;-53
2022/06/07 08:12:08;;;;;;;;;;;21.50;49.00;;;;;;5074593;28;19932;-53
2022/06/07 08:14:36;;;;;;;;;;;21.50;49.00;;;;;;5082825;28;20023;-52
2022/06/07 08:17:03;;;;;;;;;;;21.50;49.00;;;;;;5073632;28;19924;-54
2022/06/07 08:19:30;;;;;;;;;;;21.50;49.00;;;;;;5086059;28;19946;-53
2022/06/07 08:21:57;;;;;;;;;;;21.50;49.00;;;;;;5095676;28;19966;-56
2022/06/07 08:24:23;;;;;;;;;;;21.50;49.00;;;;;;5079575;28;20324;-56
2022/06/07 08:26:52;;;;;;;;;;;21.50;49.00;;;;;;5074533;28;19928;-53
2022/06/07 08:29:20;;;;;;;;;;;21.50;49.00;;;;;;5082218;28;19955;-56
2022/06/07 08:31:47;;;;;;;;;;;21.50;48.90;;;;;;5079984;28;19926;-55
2022/06/07 08:39:45;;;;;;;;;;;21.50;48.90;;;;;;5077558;28;20418;-54
2022/06/07 08:42:14;;;;;;;;;;;21.50;48.90;;;;;;5094032;28;19920;-54
2022/06/07 08:44:43;;;;;;;;;;;21.50;48.90;;;;;;5095765;28;19920;-56
2022/06/07 08:47:12;;;;;;;;;;;21.50;48.90;;;;;;5094555;28;20267;-54
2022/06/07 08:49:39;;;;;;;;;;;21.50;48.90;;;;;;5090245;28;19920;-52
2022/06/07 08:52:09;;;;;;;;;;;21.50;48.90;;;;;;5083192;28;19931;-53
2022/06/07 08:54:37;;;;;;;;;;;21.50;48.90;;;;;;5091705;28;19924;-55
2022/06/07 08:57:10;;;;;;;;;;;21.50;48.90;;;;;;5071961;28;19921;-55
2022/06/07 08:59:37;;;;;;;;;;;21.50;48.90;;;;;;5075522;28;20019;-52
2022/06/07 09:02:06;;;;;;;;;;;21.50;48.80;;;;;;5073756;28;19924;-55
2022/06/07 09:04:33;;;;;;;;;;;21.50;48.80;;;;;;5074492;28;19927;-54
2022/06/07 09:07:03;;;;;;;;;;;21.50;48.80;;;;;;5073334;28;20353;-56
2022/06/07 09:12:14;;;;;;;;;;;21.60;48.90;;;;;;5069441;28;20003;-53
2022/06/07 09:14:43;;;;;;;;;;;21.60;48.90;;;;;;5077178;28;19926;-54
2022/06/07 09:17:12;;;;;;;;;;;21.60;48.90;;;;;;5076289;28;20016;-49
2022/06/07 09:19:39;;;;;;;;;;;21.60;48.90;;;;;;5075714;28;20333;-52
2022/06/07 09:22:07;;;;;;;;;;;21.60;49.00;;;;;;5078674;28;19920;-53
2022/06/07 09:24:35;;;;;;;;;;;21.60;49.00;;;;;;5073901;28;19931;-54
2022/06/07 09:27:06;;;;;;;;;;;21.60;48.90;;;;;;5077173;28;19943;-50
2022/06/07 09:29:35;;;;;;;;;;;21.60;49.00;;;;;;5076536;28;19927;-54
2022/06/07 09:32:01;;;;;;;;;;;21.60;48.90;;;;;;5073179;28;19956;-54
2022/06/07 09:34:30;;;;;;;;;;;21.60;48.90;;;;;;5082698;28;20274;-55
2022/06/07 09:36:57;;;;;;;;;;;21.60;48.90;;;;;;5075923;28;19920;-56
2022/06/07 09:39:26;;;;;;;;;;;21.70;48.90;;;;;;5077205;28;19943;-51
2022/06/07 09:41:54;;;;;;;;;;;21.70;48.90;;;;;;5077472;28;19927;-53
2022/06/07 09:44:25;;;;;;;;;;;21.60;48.80;;;;;;5073561;28;20338;-57
2022/06/07 09:46:52;;;;;;;;;;;21.70;48.90;;;;;;5066806;28;19933;-54
2022/06/07 09:49:30;;;;;;;;;;;21.70;48.90;;;;;;5078605;28;19963;-55
2022/06/07 09:52:03;;;;;;;;;;;21.70;48.90;;;;;;5079875;28;19920;-53
2022/06/07 09:54:30;;;;;;;;;;;21.70;48.90;;;;;;5079394;28;20295;-55
2022/06/07 09:57:00;;;;;;;;;;;21.70;48.90;;;;;;5074697;28;19924;-57
2022/06/07 09:59:32;;;;;;;;;;;21.70;48.80;;;;;;5080751;28;20273;-52
2022/06/07 10:02:00;;;;;;;;;;;21.70;48.90;;;;;;5071404;28;19920;-55
2022/06/07 10:04:29;;;;;;;;;;;21.70;48.90;;;;;;5067915;28;19920;-50
2022/06/07 10:06:58;;;;;;;;;;;21.70;48.90;;;;;;5070176;28;19920;-53
2022/06/07 10:09:27;;;;;;;;;;;21.70;48.90;;;;;;5091826;28;19920;-52
2022/06/07 10:11:57;;;;;;;;;;;21.70;48.90;;;;;;5079177;28;19931;-57
2022/06/07 10:14:25;;;;;;;;;;;21.70;48.80;;;;;;5072166;28;19927;-56
2022/06/07 10:16:56;;;;;;;;;;;21.70;48.80;;;;;;5091992;28;19921;-54
2022/06/07 10:19:29;;;;;;;;;;;21.70;48.80;;;;;;5081795;28;19927;-50
2022/06/07 10:22:17;;;;;;;;;;;21.70;48.80;;;;;;5089140;28;20384;-54
2022/06/07 10:24:47;;;;;;;;;;;21.70;48.80;;;;;;5072490;28;19920;-56
2022/06/07 10:27:16;;;;;;;;;;;21.80;48.90;;;;;;5080884;28;19920;-57
2022/06/07 10:29:56;;;;;;;;;;;21.80;48.90;;;;;;5079888;28;19919;-52
2022/06/07 10:32:25;;;;;;;;;;;21.70;48.80;;;;;;5071951;28;19920;-56
2022/06/07 10:34:53;;;;;;;;;;;21.70;48.80;;;;;;5072180;28;19958;-56
2022/06/07 10:37:25;;;;;;;;;;;21.70;48.80;;;;;;5070610;28;19924;-52
2022/06/07 10:39:56;;;;;;;;;;;21.80;48.90;;;;;;5094830;28;19928;-52
2022/06/07 10:42:24;;;;;;;;;;;21.80;48.90;;;;;;5081809;28;19920;-52
2022/06/07 10:44:53;;;;;;;;;;;21.70;48.80;;;;;;5068848;28;19920;-56
2022/06/07 10:47:21;;;;;;;;;;;21.70;48.80;;;;;;5068641;28;19933;-53
2022/06/07 10:49:50;;;;;;;;;;;21.70;49.30;;;;;;5070818;28;19920;-56
2022/06/07 10:52:24;;;;;;;;;;;21.70;48.70;;;;;;5079264;28;19928;-53
2022/06/07 10:54:55;;;;;;;;;;;21.70;48.80;;;;;;5074532;28;19920;-55
2022/06/07 10:57:25;;;;;;;;;;;21.70;48.70;;;;;;5076740;28;19920;-56
2022/06/07 10:59:51;;;;;;;;;;;21.80;48.80;;;;;;5074042;28;19924;-52
2022/06/07 11:02:24;;;;;;;;;;;21.80;48.80;;;;;;5079614;28;20267;-55
2022/06/07 11:10:24;;;;;;;;;;;21.80;48.80;;;;;;5081717;28;19989;-53
2022/06/07 11:12:52;;;;;;;;;;;21.80;48.80;;;;;;5084794;28;19919;-56
2022/06/07 11:15:19;;;;;;;;;;;21.80;48.90;;;;;;5077312;28;20344;-57
2022/06/07 11:17:47;;;;;;;;;;;21.80;48.80;;;;;;5073397;28;19920;-52
2022/06/07 11:20:14;;;;;;;;;;;21.80;48.90;;;;;;5084690;28;19927;-53
2022/06/07 11:23:02;;;;;;;;;;;21.80;48.80;;;;;;5072094;28;19921;-51
2022/06/07 11:25:33;;;;;;;;;;;21.80;48.80;;;;;;5075424;28;19924;-53
2022/06/07 11:28:00;;;;;;;;;;;21.80;48.80;;;;;;5080862;28;20019;-55
2022/06/07 11:30:41;;;;;;;;;;;21.80;48.80;;;;;;5069291;28;19924;-53
2022/06/07 11:33:22;;;;;;;;;;;21.80;48.80;;;;;;5075102;28;19924;-56
2022/06/07 11:35:52;;;;;;;;;;;21.80;48.80;;;;;;5089048;28;19931;-51
2022/06/07 11:38:22;;;;;;;;;;;21.80;48.80;;;;;;5084977;28;19920;-50
2022/06/07 11:40:51;;;;;;;;;;;21.80;48.80;;;;;;5084999;28;20276;-55
2022/06/07 11:43:37;;;;;;;;;;;21.80;48.80;;;;;;5090733;28;19919;-54
2022/06/07 11:46:04;;;;;;;;;;;21.80;48.80;;;;;;5078537;28;20423;-54
2022/06/07 11:48:36;;;;;;;;;;;21.80;48.80;;;;;;5086348;28;19927;-55
2022/06/07 11:51:08;;;;;;;;;;;21.80;48.80;;;;;;5082660;28;20010;-55
2022/06/07 11:53:35;;;;;;;;;;;21.80;48.80;;;;;;5082579;28;20370;-52
2022/06/07 11:56:12;;;;;;;;;;;21.80;48.80;;;;;;5076797;28;20300;-53
2022/06/07 11:58:52;;;;;;;;;;;21.80;48.80;;;;;;5073438;28;19920;-56
2022/06/07 12:01:40;;;;;;;;;;;21.90;48.90;;;;;;5081112;28;20348;-54
2022/06/07 12:04:07;;;;;;;;;;;21.90;48.80;;;;;;5082423;28;19989;-53
2022/06/07 12:06:35;;;;;;;;;;;21.80;48.80;;;;;;5077387;28;19920;-53
2022/06/07 12:09:02;;;;;;;;;;;21.90;48.90;;;;;;5074578;28;19931;-54
2022/06/07 12:11:32;;;;;;;;;;;21.90;48.90;;;;;;5077320;28;20022;-55
2022/06/07 12:14:02;;;;;;;;;;;21.90;48.90;;;;;;5082307;28;19927;-56
2022/06/07 12:16:32;;;;;;;;;;;21.90;48.80;;;;;;5074286;28;19946;-58
2022/06/07 12:18:59;;;;;;;;;;;21.90;48.80;;;;;;5085947;28;19920;-52
2022/06/07 12:21:26;;;;;;;;;;;21.90;48.80;;;;;;5082463;28;19927;-53
2022/06/07 12:23:53;;;;;;;;;;;21.90;48.80;;;;;;5080455;28;20380;-54
2022/06/07 12:26:20;;;;;;;;;;;21.90;48.80;;;;;;5085347;28;19943;-53
2022/06/07 12:28:51;;;;;;;;;;;21.90;48.80;;;;;;5076774;28;19921;-53
2022/06/07 12:31:23;;;;;;;;;;;21.90;48.80;;;;;;5071706;28;19968;-54
2022/06/07 12:33:50;;;;;;;;;;;21.90;48.80;;;;;;5076872;28;20023;-50
2022/06/07 12:36:18;;;;;;;;;;;21.90;48.80;;;;;;5086555;28;19920;-57
2022/06/07 12:38:44;;;;;;;;;;;21.90;48.80;;;;;;5077940;28;19920;-52
2022/06/07 12:41:13;;;;;;;;;;;21.90;48.80;;;;;;5085203;28;20006;-56
2022/06/07 12:43:44;;;;;;;;;;;21.90;48.80;;;;;;5078385;28;19973;-55
2022/06/07 12:46:20;;;;;;;;;;;21.90;48.80;;;;;;5079573;28;19920;-56
2022/06/07 12:48:47;;;;;;;;;;;21.90;48.80;;;;;;5083314;28;19927;-53
2022/06/07 12:51:24;;;;;;;;;;;21.90;48.80;;;;;;5077189;28;19924;-56
2022/06/07 12:53:51;;;;;;;;;;;21.90;48.80;;;;;;5080545;28;19933;-54
2022/06/07 12:56:18;;;;;;;;;;;21.90;48.80;;;;;;5076052;28;19985;-54
2022/06/07 12:58:45;;;;;;;;;;;21.90;48.80;;;;;;5082983;28;19927;-55
2022/06/07 13:01:23;;;;;;;;;;;21.90;48.80;;;;;;5074801;28;19927;-56
2022/06/07 13:03:50;;;;;;;;;;;21.90;49.30;;;;;;5076513;28;19920;-55
2022/06/07 13:06:18;;;;;;;;;;;21.90;48.80;;;;;;5076468;28;19920;-55
2022/06/07 13:08:45;;;;;;;;;;;21.90;48.80;;;;;;5077613;28;19920;-55
2022/06/07 13:11:13;;;;;;;;;;;21.90;48.80;;;;;;5076385;28;19950;-52
2022/06/07 13:13:40;;;;;;;;;;;21.90;48.80;;;;;;5071945;28;19972;-55
2022/06/07 13:16:18;;;;;;;;;;;21.90;48.70;;;;;;5075191;28;19931;-52
2022/06/07 13:18:57;;;;;;;;;;;21.90;48.70;;;;;;5078772;28;19924;-58
2022/06/07 13:21:24;;;;;;;;;;;21.90;48.80;;;;;;5077782;28;19967;-54
2022/06/07 13:23:51;;;;;;;;;;;21.90;48.80;;;;;;5078543;28;19920;-53
2022/06/07 13:26:21;;;;;;;;;;;21.90;48.70;;;;;;5079655;28;19970;-53
2022/06/07 13:28:48;;;;;;;;;;;21.90;48.70;;;;;;5080740;28;19977;-55
2022/06/07 13:31:28;;;;;;;;;;;21.90;48.70;;;;;;5079925;28;20274;-52
2022/06/07 13:34:04;;;;;;;;;;;21.90;48.70;;;;;;5082691;28;19920;-55
2022/06/07 13:36:31;;;;;;;;;;;22.00;48.80;;;;;;5076573;28;19920;-55
2022/06/07 13:38:58;;;;;;;;;;;21.90;48.70;;;;;;5075525;28;19924;-54
2022/06/07 13:41:25;;;;;;;;;;;21.90;48.70;;;;;;5084365;28;19920;-55
2022/06/07 13:43:54;;;;;;;;;;;22.00;48.90;;;;;;5086657;28;20804;-53
2022/06/07 13:46:22;;;;;;;;;;;22.00;48.80;;;;;;5079116;28;19920;-54
2022/06/07 13:54:25;;;;;;;;;;;22.00;48.80;;;;;;5077301;28;19927;-53
2022/06/07 13:56:52;;;;;;;;;;;22.00;48.80;;;;;;5091044;28;19920;-55
2022/06/07 13:59:19;;;;;;;;;;;22.00;48.80;;;;;;5084685;28;19920;-55
2022/06/07 14:01:47;;;;;;;;;;;21.90;48.80;;;;;;5072746;28;20019;-52
2022/06/07 14:04:22;;;;;;;;;;;22.00;48.80;;;;;;5099782;28;20246;-52
2022/06/07 14:06:51;;;;;;;;;;;22.00;49.40;;;;;;5077811;28;20010;-55
2022/06/07 14:09:19;;;;;;;;;;;22.00;48.80;;;;;;5069018;28;20298;-53
2022/06/07 14:11:46;;;;;;;;;;;22.00;48.80;;;;;;5081226;28;20373;-56
2022/06/07 14:14:12;;;;;;;;;;;22.00;48.80;;;;;;5084275;28;19920;-55
2022/06/07 14:16:41;;;;;;;;;;;22.00;48.80;;;;;;5075693;28;20239;-55
2022/06/07 14:19:09;;;;;;;;;;;22.00;48.80;;;;;;5091517;28;19924;-56
2022/06/07 14:21:36;;;;;;;;;;;22.00;48.80;;;;;;5081842;28;19920;-53
2022/06/07 14:24:06;;;;;;;;;;;22.00;49.00;;;;;;5081025;28;19986;-54
2022/06/07 14:26:34;;;;;;;;;;;22.00;48.80;;;;;;5084025;28;19927;-56
2022/06/07 14:29:01;;;;;;;;;;;22.00;48.80;;;;;;5073871;28;19920;-54
2022/06/07 14:31:28;;;;;;;;;;;22.00;48.90;;;;;;5072896;28;20361;-55
2022/06/07 14:33:55;;;;;;;;;;;22.00;48.80;;;;;;5073052;28;19920;-56
2022/06/07 14:36:22;;;;;;;;;;;22.00;48.80;;;;;;5078186;28;19969;-55
2022/06/07 14:38:49;;;;;;;;;;;22.00;48.80;;;;;;5077524;28;19924;-57
2022/06/07 14:41:17;;;;;;;;;;;22.00;48.80;;;;;;5081256;28;19920;-53
2022/06/07 14:43:44;;;;;;;;;;;22.00;48.80;;;;;;5082159;28;20349;-56
2022/06/07 14:46:13;;;;;;;;;;;22.00;48.80;;;;;;5087593;28;19920;-56
2022/06/07 14:48:40;;;;;;;;;;;22.00;48.80;;;;;;5088461;28;19921;-53
2022/06/07 14:51:17;;;;;;;;;;;22.00;48.80;;;;;;5078166;28;19924;-57
2022/06/07 14:53:44;;;;;;;;;;;22.00;48.80;;;;;;5086578;28;19920;-55